Time;durP1;ratioP1;P1;durP2;ratioP2;P2;SDS_P1;SDS_P2;PMS_P1;PMS_P2;Temp;Humidity;BMP_temperature;BMP_pressure;BME280_temperature;BME280_humidity;BME280_pressure;Samples;Min_cycle;Max_cycle;Signal;HPM_P1;HPM_P2
2022/06/06 00:02:00;;;;;;;2.92;2.08;;;;;;;18.74;86.40;90891.66;5032404;28;20038;-63
2022/06/06 00:04:27;;;;;;;2.63;2.22;;;;;;;18.91;85.48;90887.69;5032198;28;20033;-64
2022/06/06 00:06:54;;;;;;;2.10;1.90;;;;;;;19.00;84.42;90896.34;5032381;28;20030;-64
2022/06/06 00:09:20;;;;;;;4.68;2.55;;;;;;;19.03;84.08;90906.41;5032287;28;20068;-64
2022/06/06 00:11:46;;;;;;;2.45;2.25;;;;;;;18.84;88.97;90901.84;5032247;28;20018;-64
2022/06/06 00:14:13;;;;;;;2.65;2.15;;;;;;;18.65;95.22;90894.59;5032123;28;20029;-64
2022/06/06 00:16:39;;;;;;;2.80;2.15;;;;;;;18.46;94.70;90891.88;5032145;28;20029;-63
2022/06/06 00:19:05;;;;;;;2.38;2.00;;;;;;;18.44;94.24;90918.41;5032172;28;20098;-64
2022/06/06 00:21:33;;;;;;;2.95;2.33;;;;;;;18.37;100.00;90923.66;5032272;28;20021;-64
2022/06/06 00:24:00;;;;;;;2.72;2.38;;;;;;;18.08;100.00;90927.72;5032165;28;20029;-63
2022/06/06 00:26:28;;;;;;;3.08;2.67;;;;;;;17.60;100.00;90917.06;5032004;28;20123;-63
2022/06/06 00:28:54;;;;;;;6.65;2.70;;;;;;;17.46;100.00;90930.19;5031936;28;20188;-64
2022/06/06 00:36:49;;;;;;;3.47;2.63;;;;;;;16.93;100.00;90934.34;5031977;28;20120;-64
2022/06/06 00:39:17;;;;;;;2.92;2.63;;;;;;;16.88;100.00;90915.75;5031753;28;20120;-63
2022/06/06 00:41:47;;;;;;;3.85;2.67;;;;;;;16.85;100.00;90900.34;5031641;28;20026;-63
2022/06/06 00:44:19;;;;;;;3.38;2.63;;;;;;;16.90;100.00;90875.91;5031612;28;20037;-64
2022/06/06 00:47:00;;;;;;;3.30;2.33;;;;;;;16.97;100.00;90858.03;5031682;28;20033;-64
2022/06/06 00:49:47;;;;;;;2.38;2.13;;;;;;;17.33;100.00;90840.00;5031598;28;20037;-63
2022/06/06 00:52:20;;;;;;;2.30;2.10;;;;;;;17.63;100.00;90843.72;5031300;28;20021;-64
2022/06/06 00:54:46;;;;;;;;;;;;;;;17.82;100.00;90842.19;5031987;28;20041;-64
2022/06/06 00:57:21;;;;;;;3.28;2.35;;;;;;;17.94;100.00;90828.59;5031537;28;19913;-64
2022/06/06 00:59:47;;;;;;;4.07;2.40;;;;;;;17.88;100.00;90827.34;5031757;28;20037;-64
2022/06/06 01:02:14;;;;;;;2.35;1.92;;;;;;;17.75;100.00;90828.63;5013505;28;20427;-64
2022/06/06 01:04:41;;;;;;;2.85;2.60;;;;;;;17.62;100.00;90812.59;5031228;28;20132;-64
2022/06/06 01:07:09;;;;;;;3.28;2.80;;;;;;;17.49;100.00;90824.59;5031573;28;20396;-64
2022/06/06 01:09:37;;;;;;;2.72;2.20;;;;;;;17.39;100.00;90833.25;5031095;28;20396;-64
2022/06/06 01:12:06;;;;;;;2.92;2.40;;;;;;;17.30;100.00;90830.75;5031253;28;20029;-64
2022/06/06 01:14:35;;;;;;;2.40;2.20;;;;;;;17.24;100.00;90826.00;5031220;28;20475;-64
2022/06/06 01:17:06;;;;;;;2.22;2.00;;;;;;;17.37;100.00;90835.50;5031190;28;20451;-64
2022/06/06 01:20:03;;;;;;;1.90;1.80;;;;;;;17.61;100.00;90837.16;5031151;28;20029;-64
2022/06/06 01:22:35;;;;;;;4.13;2.13;;;;;;;17.79;100.00;90832.16;5023650;28;20120;-64
2022/06/06 01:25:25;;;;;;;2.95;2.10;;;;;;;17.91;100.00;90827.41;5031013;28;20565;-64
2022/06/06 01:27:59;;;;;;;2.22;2.03;;;;;;;17.92;100.00;90823.59;5030946;28;20021;-63
2022/06/06 01:30:54;;;;;;;6.93;2.47;;;;;;;17.94;100.00;90809.75;5031185;28;20045;-64
2022/06/06 01:33:20;;;;;;;2.60;2.30;;;;;;;17.93;100.00;90795.53;5028060;28;20043;-64
2022/06/06 01:35:48;;;;;;;4.03;2.22;;;;;;;17.94;100.00;90799.00;5030880;28;20029;-64
2022/06/06 01:38:17;;;;;;;2.80;2.53;;;;;;;18.01;100.00;90806.44;5030880;28;20766;-63
2022/06/06 01:41:00;;;;;;;3.15;2.80;;;;;;;18.00;100.00;90811.06;5030809;28;20025;-63
2022/06/06 01:43:36;;;;;;;3.35;2.50;;;;;;;17.97;100.00;90814.44;5030669;28;20108;-64
2022/06/06 01:46:08;;;;;;;4.57;2.60;;;;;;;17.98;100.00;90815.22;5030811;28;20431;-64
2022/06/06 01:48:37;;;;;;;2.13;1.92;;;;;;;18.14;100.00;90800.53;5030847;28;20104;-63
2022/06/06 01:51:12;;;;;;;2.10;1.90;;;;;;;18.21;100.00;90800.66;5030883;28;20033;-63
2022/06/06 01:53:39;;;;;;;4.00;2.40;;;;;;;18.33;100.00;90799.72;5030749;28;20037;-63
2022/06/06 01:56:10;;;;;;;5.72;2.15;;;;;;;18.39;100.00;90802.88;5030892;28;20091;-64
2022/06/06 01:58:35;;;;;;;3.67;2.30;;;;;;;18.51;100.00;90821.56;5030709;28;20104;-64
2022/06/06 02:01:02;;;;;;;3.25;2.00;;;;;;;18.48;100.00;90851.94;5030549;28;20113;-63
2022/06/06 02:03:29;;;;;;;4.53;2.60;;;;;;;18.19;100.00;90885.63;5030793;28;20037;-63
2022/06/06 02:05:55;;;;;;;2.80;2.38;;;;;;;18.03;100.00;90904.56;5033784;28;20045;-63
2022/06/06 02:08:20;;;;;;;2.47;2.15;;;;;;;17.60;100.00;90924.38;5034622;28;20056;-63
2022/06/06 02:10:46;;;;;;;5.63;2.60;;;;;;;17.00;100.00;90959.47;5034758;28;20033;-63
2022/06/06 02:13:12;;;;;;;3.72;2.38;;;;;;;16.70;100.00;90969.81;5034379;28;20079;-63
2022/06/06 02:15:39;;;;;;;3.38;2.45;;;;;;;16.46;100.00;90973.41;5034487;28;20515;-63
2022/06/06 02:18:05;;;;;;;6.20;1.85;;;;;;;16.39;100.00;90983.94;5034436;28;20052;-63
2022/06/06 02:20:32;;;;;;;2.92;2.30;;;;;;;16.25;100.00;90978.16;5034341;28;20057;-63
2022/06/06 02:22:58;;;;;;;5.65;2.33;;;;;;;16.13;100.00;90970.97;5034147;28;20033;-63
2022/06/06 02:25:25;;;;;;;3.90;2.47;;;;;;;15.97;100.00;90980.06;5034342;28;20515;-63
2022/06/06 02:27:51;;;;;;;4.32;3.08;;;;;;;15.99;100.00;90972.47;5034229;28;20033;-63
2022/06/06 02:32:58;;;;;;;4.07;2.72;;;;;;;16.15;100.00;90978.66;5034217;23;20136;-65
2022/06/06 02:35:27;;;;;;;8.35;3.15;;;;;;;16.11;100.00;90988.53;5033946;28;20128;-65
2022/06/06 02:37:56;;;;;;;4.82;3.70;;;;;;;16.09;100.00;90994.22;5033858;28;20065;-64
2022/06/06 02:40:23;;;;;;;7.18;3.67;;;;;;;16.07;100.00;91006.41;5034023;28;20033;-64
2022/06/06 02:42:48;;;;;;;7.57;3.50;;;;;;;16.06;100.00;91027.09;5033829;28;20500;-65
2022/06/06 02:45:15;;;;;;;6.78;4.10;;;;;;;16.01;100.00;91035.41;5033708;28;20108;-65
2022/06/06 02:47:43;;;;;;;7.53;3.58;;;;;;;16.02;100.00;91041.53;5033041;28;20494;-64
2022/06/06 02:50:09;;;;;;;5.13;3.30;;;;;;;16.05;100.00;91036.28;5033588;28;20029;-63
2022/06/06 02:52:36;;;;;;;6.32;3.90;;;;;;;16.03;100.00;91033.16;5033390;28;20025;-63
2022/06/06 02:55:03;;;;;;;7.18;4.10;;;;;;;16.11;100.00;91040.31;5033460;28;20113;-64
2022/06/06 02:57:29;;;;;;;5.85;3.38;;;;;;;16.15;100.00;91040.41;5033462;28;20103;-64
2022/06/06 02:59:57;;;;;;;4.43;3.20;;;;;;;16.13;100.00;91064.91;5033444;28;20029;-63
2022/06/06 03:02:23;;;;;;;3.92;3.10;;;;;;;16.10;100.00;91070.94;5033224;28;20428;-64
2022/06/06 03:04:48;;;;;;;24.20;12.40;;;;;;;16.13;100.00;91088.28;5033228;28;20510;-64
2022/06/06 03:07:28;;;;;;;6.55;4.13;;;;;;;16.18;100.00;91088.81;5033308;28;20097;-64
2022/06/06 03:09:59;;;;;;;9.85;3.90;;;;;;;16.13;100.00;91075.63;5033285;28;20053;-64
2022/06/06 03:12:52;;;;;;;6.90;4.40;;;;;;;16.08;100.00;91064.34;5033096;28;20025;-64
2022/06/06 03:22:18;;;;;;;6.80;3.80;;;;;;;16.10;100.00;90978.91;4933691;29;20091;-64
2022/06/06 03:24:56;;;;;;;5.88;3.17;;;;;;;16.03;100.00;90944.59;5032730;28;20132;-64
2022/06/06 03:27:43;;;;;;;6.60;3.58;;;;;;;16.02;100.00;90920.78;5015215;28;20067;-64
2022/06/06 03:30:50;;;;;;;6.15;3.65;;;;;;;16.00;100.00;90904.25;5032832;28;20057;-63
2022/06/06 03:33:37;;;;;;;3.55;3.13;;;;;;;16.01;100.00;90913.88;5019424;28;20053;-64
2022/06/06 03:36:37;;;;;;;3.90;3.17;;;;;;;16.02;100.00;90916.22;5032834;28;20025;-63
2022/06/06 03:39:21;;;;;;;6.55;3.30;;;;;;;16.08;100.00;90917.50;5031904;28;20046;-63
2022/06/06 03:41:49;;;;;;;4.80;3.05;;;;;;;16.13;100.00;90911.13;5032477;28;20026;-63
2022/06/06 03:44:24;;;;;;;3.67;2.83;;;;;;;16.22;100.00;90905.59;5032602;28;20494;-63
2022/06/06 03:46:56;;;;;;;4.20;2.80;;;;;;;16.30;100.00;90910.84;5032521;28;20037;-63
2022/06/06 03:49:24;;;;;;;4.28;3.25;;;;;;;16.35;100.00;90915.16;5032557;28;20108;-63
2022/06/06 03:51:50;;;;;;;11.55;6.95;;;;;;;16.27;100.00;90922.25;5032221;28;20096;-62
2022/06/06 03:54:31;;;;;;;5.72;3.45;;;;;;;16.32;100.00;90918.53;5032134;28;20029;-62
2022/06/06 03:57:08;;;;;;;4.82;2.60;;;;;;;16.42;100.00;90916.16;5032224;28;20025;-62
2022/06/06 03:59:37;;;;;;;5.28;3.50;;;;;;;16.51;100.00;90912.50;5032206;28;20056;-62
2022/06/06 04:02:05;;;;;;;6.57;3.28;;;;;;;16.59;100.00;90908.91;5032067;28;20021;-62
2022/06/06 04:04:32;;;;;;;5.78;2.60;;;;;;;16.65;100.00;90910.97;5032107;28;20574;-62
2022/06/06 04:06:59;;;;;;;4.15;3.13;;;;;;;16.67;100.00;90910.66;5032082;28;20037;-62
2022/06/06 04:09:28;;;;;;;4.05;3.55;;;;;;;16.71;100.00;90909.59;5032037;28;20124;-62
2022/06/06 04:12:20;;;;;;;5.53;3.70;;;;;;;16.68;100.00;90896.88;5031879;28;20065;-63
2022/06/06 04:15:08;;;;;;;10.85;3.25;;;;;;;16.49;100.00;90896.75;5031531;28;20029;-62
2022/06/06 04:17:45;;;;;;;5.47;3.33;;;;;;;16.59;100.00;90895.47;5031941;28;20021;-63
2022/06/06 04:20:36;;;;;;;5.10;3.65;;;;;;;16.64;100.00;90900.56;5014098;28;20040;-63
2022/06/06 04:23:16;;;;;;;4.70;3.60;;;;;;;16.78;100.00;90906.34;5031705;28;20025;-63
2022/06/06 04:26:18;;;;;;;3.97;2.90;;;;;;;17.04;100.00;90913.84;5031608;28;20498;-62
2022/06/06 04:28:55;;;;;;;5.82;3.35;;;;;;;17.18;100.00;90908.03;5031178;28;20029;-62
2022/06/06 04:31:47;;;;;;;5.13;3.00;;;;;;;17.23;100.00;90905.09;5037683;28;20473;-63
2022/06/06 04:34:20;;;;;;;4.72;2.38;;;;;;;17.23;100.00;90905.88;5051659;28;20044;-63
2022/06/06 04:36:45;;;;;;;;;;;;;;;17.21;100.00;90902.75;5051963;28;20371;-63
2022/06/06 04:39:32;;;;;;;3.00;2.40;;;;;;;17.17;100.00;90895.72;5051442;28;20404;-62
2022/06/06 04:42:46;;;;;;;2.80;2.58;;;;;;;17.19;100.00;90899.63;5051291;28;20032;-63
2022/06/06 04:45:14;;;;;;;3.50;2.85;;;;;;;17.16;100.00;90897.63;5005300;28;20080;-63
2022/06/06 04:47:41;;;;;;;3.05;2.55;;;;;;;17.18;100.00;90902.66;5051417;28;20055;-63
2022/06/06 04:50:13;;;;;;;5.65;2.60;;;;;;;17.11;100.00;90908.66;5051404;28;20512;-63
2022/06/06 04:52:43;;;;;;;5.75;2.45;;;;;;;17.13;100.00;90909.09;5051240;28;20029;-63
2022/06/06 04:55:10;;;;;;;3.05;2.40;;;;;;;17.12;100.00;90915.59;5051220;28;20453;-62
2022/06/06 04:57:43;;;;;;;3.15;2.30;;;;;;;17.22;100.00;90917.75;5051144;28;20037;-63
2022/06/06 05:00:09;;;;;;;4.15;2.92;;;;;;;17.37;100.00;90932.31;5051197;28;20082;-63
2022/06/06 05:02:36;;;;;;;6.20;2.67;;;;;;;17.57;100.00;90928.53;5050898;28;20107;-63
2022/06/06 05:05:02;;;;;;;4.38;3.38;;;;;;;17.62;100.00;90927.47;5051026;28;20029;-63
2022/06/06 05:08:01;;;;;;;4.47;2.90;;;;;;;17.75;100.00;90928.19;5051345;28;20055;-63
2022/06/06 05:10:27;;;;;;;3.85;2.42;;;;;;;17.89;100.00;90931.16;5050951;28;20380;-63
2022/06/06 05:12:58;;;;;;;2.90;2.60;;;;;;;18.02;100.00;90932.59;5050984;28;20043;-62
2022/06/06 05:15:32;;;;;;;4.25;2.40;;;;;;;18.14;100.00;90931.66;5050921;28;20567;-63
2022/06/06 05:17:59;;;;;;;4.07;2.63;;;;;;;18.38;100.00;90934.09;5050947;28;20037;-63
2022/06/06 05:20:48;;;;;;;5.68;2.85;;;;;;;18.58;100.00;90940.22;5051063;28;20033;-63
2022/06/06 05:23:14;;;;;;;4.13;2.63;;;;;;;18.66;100.00;90936.56;5050824;28;20032;-63
2022/06/06 05:25:48;;;;;;;5.53;3.42;;;;;;;19.05;100.00;90939.16;5049563;28;20052;-63
2022/06/06 05:28:24;;;;;;;5.55;2.15;;;;;;;19.40;100.00;90937.03;5050716;28;20040;-63
2022/06/06 05:31:20;;;;;;;4.63;2.67;;;;;;;19.96;100.00;90939.06;5050511;28;20025;-63
2022/06/06 05:33:52;;;;;;;4.18;2.53;;;;;;;20.34;100.00;90929.88;5050728;28;20025;-63
2022/06/06 05:36:40;;;;;;;3.70;2.30;;;;;;;20.69;100.00;90928.78;5050762;28;20513;-63
2022/06/06 05:39:42;;;;;;;3.47;2.05;;;;;;;20.87;100.00;90926.25;5043073;28;20053;-63
2022/06/06 05:42:13;;;;;;;6.20;2.13;;;;;;;20.88;100.00;90923.19;5022766;28;20044;-63
2022/06/06 05:44:59;;;;;;;3.88;2.53;;;;;;;21.38;100.00;90920.94;5054772;28;20040;-64
2022/06/06 05:47:33;;;;;;;5.15;2.40;;;;;;;22.28;100.00;90923.09;5054772;28;20041;-63
2022/06/06 05:50:23;;;;;;;2.50;2.25;;;;;;;23.08;100.00;90924.94;5054750;28;20110;-63
2022/06/06 05:53:09;;;;;;;4.20;2.45;;;;;;;25.79;92.84;90925.72;5054604;28;20463;-63
2022/06/06 05:55:53;;;;;;;4.40;2.55;;;;;;;29.42;66.63;90925.84;5054612;28;20448;-63
2022/06/06 05:58:22;;;;;;;2.20;1.85;;;;;;;30.91;57.48;90920.66;5054566;28;20033;-64
2022/06/06 06:01:09;;;;;;;2.63;1.80;;;;;;;31.66;52.93;90926.78;5054295;28;20028;-62
2022/06/06 06:04:04;;;;;;;2.05;1.50;;;;;;;31.78;53.08;90926.81;5054442;28;20039;-62
2022/06/06 06:07:02;;;;;;;2.25;1.50;;;;;;;31.41;52.47;90927.53;5054328;28;20352;-63
2022/06/06 06:09:55;;;;;;;1.90;1.67;;;;;;;31.06;56.00;90932.81;5052094;28;20059;-62
2022/06/06 06:12:57;;;;;;;1.65;1.52;;;;;;;32.63;50.92;90930.78;5054110;28;20036;-62
2022/06/06 06:15:37;;;;;;;1.67;1.50;;;;;;;34.26;46.24;90931.53;5054207;28;20575;-62
2022/06/06 06:18:08;;;;;;;5.57;2.42;;;;;;;35.74;44.73;90928.34;5054153;28;20048;-62
2022/06/06 06:20:53;;;;;;;1.90;1.70;;;;;;;35.81;43.68;90931.56;5054097;28;20755;-63
2022/06/06 06:23:28;;;;;;;5.78;1.83;;;;;;;36.43;42.55;90921.97;5054053;28;20033;-63
2022/06/06 06:25:57;;;;;;;4.72;2.40;;;;;;;38.07;39.29;90922.63;5054370;28;20468;-64
2022/06/06 06:28:25;;;;;;;6.25;2.72;;;;;;;36.20;40.05;90915.13;5054123;28;20021;-63
2022/06/06 06:30:51;;;;;;;3.53;1.50;;;;;;;32.20;49.19;90910.16;5053641;28;20029;-63
2022/06/06 06:33:28;;;;;;;4.97;1.98;;;;;;;29.97;50.54;90910.50;5054013;28;20028;-64
2022/06/06 06:36:05;;;;;;;2.55;1.70;;;;;;;28.02;55.73;90909.75;5054096;28;20540;-63
2022/06/06 06:38:34;;;;;;;4.07;1.38;;;;;;;28.43;56.32;90905.94;5053968;28;20494;-63
2022/06/06 06:41:11;;;;;;;1.08;1.02;;;;;;;29.10;54.82;90904.63;5053645;28;20029;-63
2022/06/06 06:44:06;;;;;;;2.67;1.63;;;;;;;30.19;54.87;90908.03;5053928;28;20029;-64
2022/06/06 06:46:41;;;;;;;2.08;1.75;;;;;;;31.91;49.68;90901.28;4999496;28;20044;-65
2022/06/06 06:49:12;;;;;;;4.40;1.83;;;;;;;30.54;52.65;90898.09;5053340;28;20025;-67
2022/06/06 06:51:43;;;;;;;2.80;1.40;;;;;;;29.27;54.73;90893.69;5053648;28;20036;-67
2022/06/06 06:54:27;;;;;;;2.50;1.40;;;;;;;30.30;52.01;90889.34;5054400;28;20025;-67
2022/06/06 06:57:16;;;;;;;3.50;2.17;;;;;;;31.47;50.60;90895.53;5053512;28;20029;-67
2022/06/06 07:00:09;;;;;;;2.20;2.00;;;;;;;31.82;47.24;90893.69;5025095;28;20045;-67
2022/06/06 07:08:32;;;;;;;6.18;2.15;;;;;;;27.41;58.46;90890.75;5053420;28;20036;-66
2022/06/06 07:11:26;;;;;;;1.38;1.27;;;;;;;25.93;64.15;90879.28;5052971;28;20078;-67
2022/06/06 07:14:23;;;;;;;4.38;2.08;;;;;;;25.78;70.97;90885.25;5024335;28;20490;-66
2022/06/06 07:16:55;;;;;;;3.33;1.63;;;;;;;27.67;67.28;90868.13;5033494;28;20071;-69
2022/06/06 07:19:27;;;;;;;2.38;1.65;;;;;;;29.53;56.43;90881.78;5053131;28;20047;-67
2022/06/06 07:21:56;;;;;;;2.10;1.55;;;;;;;31.12;56.34;90873.38;5052989;28;20039;-68
2022/06/06 07:24:23;;;;;;;4.30;1.85;;;;;;;32.13;54.03;90883.63;5053023;28;20029;-67
2022/06/06 07:26:49;;;;;;;3.92;1.92;;;;;;;32.50;50.13;90872.19;5053174;28;20419;-67
2022/06/06 07:29:18;;;;;;;2.33;1.75;;;;;;;31.74;52.80;90864.88;5053070;28;20526;-68
2022/06/06 07:32:16;;;;;;;2.60;1.50;;;;;;;31.52;48.64;90867.47;5052721;28;20125;-68
2022/06/06 07:35:06;;;;;;;3.13;1.38;;;;;;;31.17;48.73;90867.31;5052833;28;20041;-67
2022/06/06 07:37:47;;;;;;;2.90;1.70;;;;;;;31.93;49.69;90868.59;5052686;28;20507;-67
2022/06/06 07:40:19;;;;;;;4.30;1.90;;;;;;;33.34;45.72;90860.13;5037897;28;20030;-68
2022/06/06 07:43:09;;;;;;;2.33;2.13;;;;;;;33.76;43.40;90867.19;5043638;28;20526;-67
2022/06/06 07:45:46;;;;;;;1.88;1.08;;;;;;;35.23;37.94;90860.66;5052727;28;20047;-68
2022/06/06 07:48:39;;;;;;;1.98;1.50;;;;;;;35.12;38.77;90871.44;5049524;28;20119;-67
2022/06/06 07:51:58;;;;;;;1.67;1.58;;;;;;;33.55;40.34;90866.81;5052508;28;20550;-66
2022/06/06 07:55:00;;;;;;;2.35;1.33;;;;;;;32.29;42.47;90871.72;5010667;28;20567;-65
2022/06/06 07:57:31;;;;;;;1.48;1.38;;;;;;;33.16;40.53;90870.28;5010531;28;20034;-66
2022/06/06 08:00:12;;;;;;;2.10;1.70;;;;;;;33.56;40.06;90871.09;5041573;28;20045;-66
2022/06/06 08:02:44;;;;;;;3.08;2.00;;;;;;;31.56;45.18;90884.63;5051372;28;20052;-66
2022/06/06 08:05:21;;;;;;;1.33;1.20;;;;;;;30.62;45.54;90885.75;5052428;28;20490;-66
2022/06/06 08:08:24;;;;;;;1.77;1.50;;;;;;;30.23;46.78;90883.25;5052253;28;20036;-65
2022/06/06 08:10:50;;;;;;;2.67;1.73;;;;;;;32.84;41.69;90890.72;5052045;28;20032;-66
2022/06/06 08:13:36;;;;;;;2.85;2.00;;;;;;;33.48;43.31;90891.16;5051970;28;20029;-66
2022/06/06 08:16:20;;;;;;;1.75;1.30;;;;;;;33.65;41.69;90893.25;5052112;28;20027;-66
2022/06/06 08:19:07;;;;;;;3.28;1.63;;;;;;;36.18;35.52;90884.38;5051924;28;20473;-66
2022/06/06 08:21:46;;;;;;;1.65;1.33;;;;;;;34.48;39.47;90880.47;5051721;28;20028;-66
2022/06/06 08:24:35;;;;;;;2.40;1.70;;;;;;;34.36;40.67;90886.13;5051904;28;20029;-66
2022/06/06 08:27:05;;;;;;;2.55;1.55;;;;;;;33.67;39.93;90881.75;5051850;28;20395;-65
2022/06/06 08:29:35;;;;;;;1.52;1.33;;;;;;;33.35;40.90;90883.75;5051594;28;20028;-67
2022/06/06 08:32:00;;;;;;;2.35;1.80;;;;;;;30.56;45.16;90884.72;5051496;28;20057;-66
2022/06/06 08:34:25;;;;;;;2.05;1.80;;;;;;;29.77;48.09;90885.91;5051662;28;20025;-67
2022/06/06 08:37:31;;;;;;;2.42;1.63;;;;;;;32.22;44.69;90893.97;5051695;28;20414;-66
2022/06/06 08:40:33;;;;;;;2.45;1.40;;;;;;;33.56;43.85;90887.66;5051634;28;20102;-67
2022/06/06 08:43:11;;;;;;;3.78;1.90;;;;;;;34.32;41.25;90885.50;5051602;28;20113;-66
2022/06/06 08:45:55;;;;;;;1.90;1.55;;;;;;;31.40;46.07;90885.50;5051600;28;20033;-63
2022/06/06 08:48:46;;;;;;;4.78;3.03;;;;;;;29.74;48.64;90896.97;5051841;28;20033;-63
2022/06/06 08:51:41;;;;;;;2.35;1.70;;;;;;;31.28;44.98;90895.28;5051411;28;20021;-63
2022/06/06 08:54:44;;;;;;;3.65;2.20;;;;;;;30.40;51.22;90896.50;5051518;28;20036;-63
2022/06/06 08:57:47;;;;;;;2.28;1.50;;;;;;;28.95;52.98;90913.56;5042294;28;20137;-65
2022/06/06 09:00:50;;;;;;;4.18;2.13;;;;;;;27.33;57.66;90911.19;5051019;28;20441;-65
2022/06/06 09:03:15;;;;;;;2.97;2.23;;;;;;;25.66;63.49;90919.19;5000433;28;20056;-64
2022/06/06 09:05:52;;;;;;;2.83;2.10;;;;;;;24.44;75.15;90927.22;5050974;28;20520;-65
2022/06/06 09:08:33;;;;;;;4.72;2.47;;;;;;;24.01;82.28;90926.53;5050927;28;20037;-64
2022/06/06 09:11:27;;;;;;;6.43;2.28;;;;;;;24.01;84.75;90925.75;5050393;28;20029;-66
2022/06/06 09:14:31;;;;;;;3.03;1.83;;;;;;;24.88;81.00;90936.75;5048367;28;20036;-66
2022/06/06 09:17:05;;;;;;;3.63;2.42;;;;;;;24.57;78.55;90929.50;5022045;28;20096;-65
2022/06/06 09:20:04;;;;;;;2.40;2.00;;;;;;;24.08;88.97;90934.66;5050819;28;20029;-66
2022/06/06 09:22:42;;;;;;;4.28;2.50;;;;;;;23.69;99.42;90931.22;5050951;28;20104;-66
2022/06/06 09:25:33;;;;;;;7.28;3.08;;;;;;;23.00;100.00;90954.75;5050558;28;20025;-66
2022/06/06 09:28:01;;;;;;;2.55;1.90;;;;;;;21.53;100.00;90970.56;5050822;28;20112;-66
2022/06/06 09:31:09;;;;;;;3.90;2.85;;;;;;;20.89;100.00;90959.88;5050813;28;20033;-66
2022/06/06 09:33:58;;;;;;;4.43;2.40;;;;;;;19.91;100.00;90962.91;5022418;28;20053;-66
2022/06/06 09:36:30;;;;;;;2.97;2.58;;;;;;;19.36;100.00;90938.91;5050836;28;20487;-65
2022/06/06 09:39:43;;;;;;;3.47;2.03;;;;;;;19.11;100.00;90940.44;5050766;28;20033;-64
2022/06/06 09:42:25;;;;;;;2.75;2.30;;;;;;;18.83;100.00;90941.50;5044953;28;20120;-65
2022/06/06 09:45:09;;;;;;;4.47;3.25;;;;;;;18.54;100.00;90952.84;5050778;28;20052;-66
2022/06/06 09:47:52;;;;;;;3.58;2.45;;;;;;;18.24;100.00;90948.03;5050681;28;20060;-65
2022/06/06 09:50:24;;;;;;;2.67;2.20;;;;;;;18.12;100.00;90972.41;5049112;28;20098;-65
2022/06/06 09:53:26;;;;;;;2.78;1.98;;;;;;;17.95;100.00;90980.88;5050574;28;20090;-65
2022/06/06 09:59:51;;;;;;;1.95;1.75;;;;;;;17.12;100.00;91009.69;4991826;28;20041;-66
2022/06/06 10:02:34;;;;;;;2.90;2.60;;;;;;;16.74;100.00;90996.81;5036884;28;20458;-66
2022/06/06 10:05:22;;;;;;;;;;;;;;;16.61;100.00;90990.69;5030733;28;20175;-66
2022/06/06 10:08:33;;;;;;;2.75;2.25;;;;;;;16.77;100.00;91015.69;5027430;28;19912;-66
2022/06/06 10:11:20;;;;;;;3.22;2.05;;;;;;;16.80;100.00;91024.19;5030180;28;20117;-67
2022/06/06 10:14:18;;;;;;;3.33;2.35;;;;;;;17.09;100.00;91028.41;5030416;28;20013;-67
2022/06/06 10:17:23;;;;;;;5.45;2.45;;;;;;;17.46;100.00;91043.16;5006182;28;20041;-69
2022/06/06 10:20:15;;;;;;;4.40;3.45;;;;;;;17.95;100.00;91026.66;5030391;28;20030;-69
2022/06/06 10:22:49;;;;;;;3.85;2.33;;;;;;;18.67;100.00;91018.97;5030374;28;20467;-68
2022/06/06 10:25:25;;;;;;;4.00;2.03;;;;;;;19.14;100.00;91001.75;5031190;28;20502;-68
2022/06/06 10:28:21;;;;;;;3.50;2.00;;;;;;;19.54;100.00;91011.25;5034118;28;20037;-69
2022/06/06 10:31:03;;;;;;;5.93;2.50;;;;;;;20.13;100.00;91020.69;5033762;28;20391;-69
2022/06/06 10:33:45;;;;;;;1.83;1.70;;;;;;;20.09;100.00;91027.97;5034157;28;20052;-68
2022/06/06 10:36:29;;;;;;;6.03;2.63;;;;;;;20.41;100.00;91036.50;5033846;28;20021;-69
2022/06/06 10:39:19;;;;;;;4.80;2.45;;;;;;;20.49;100.00;91030.84;5033836;28;20446;-69
2022/06/06 10:42:14;;;;;;;6.22;3.10;;;;;;;20.24;100.00;91016.22;5033669;28;20036;-68
2022/06/06 10:45:13;;;;;;;3.15;2.58;;;;;;;20.11;100.00;91006.75;5033785;28;20025;-68
2022/06/06 10:48:15;;;;;;;3.60;2.00;;;;;;;21.12;100.00;90989.47;5033623;28;20029;-68
2022/06/06 10:54:17;;;;;;;3.47;2.15;;;;;;;25.58;76.18;90994.00;5034002;28;20033;-68
2022/06/06 10:57:04;;;;;;;2.83;1.75;;;;;;;26.69;65.97;91007.53;5033635;28;20505;-68
2022/06/06 11:00:07;;;;;;;2.95;1.90;;;;;;;28.31;61.36;90998.38;5033698;28;20025;-68
2022/06/06 11:03:02;;;;;;;2.95;2.03;;;;;;;28.90;55.67;90977.81;5033305;28;20065;-68
2022/06/06 11:05:34;;;;;;;2.33;1.50;;;;;;;31.68;49.16;90985.63;5033456;28;20026;-67
2022/06/06 11:08:23;;;;;;;2.17;1.88;;;;;;;31.32;50.81;91004.38;5033343;28;20116;-66
2022/06/06 11:11:08;;;;;;;3.03;1.63;;;;;;;30.64;48.21;91023.41;5033138;28;20025;-67
2022/06/06 11:14:04;;;;;;;3.22;2.60;;;;;;;30.69;50.53;91020.13;5033362;28;20037;-67
2022/06/06 11:16:47;;;;;;;2.75;1.83;;;;;;;27.94;57.47;91018.47;5033379;28;20040;-67
2022/06/06 11:19:50;;;;;;;3.40;2.28;;;;;;;26.91;55.04;91017.03;5033382;28;20034;-67
2022/06/06 11:22:37;;;;;;;1.98;1.80;;;;;;;25.18;58.98;90990.69;5033142;28;20026;-67
2022/06/06 11:25:14;;;;;;;1.90;1.48;;;;;;;23.64;67.18;90991.34;5031655;28;20052;-67
2022/06/06 11:27:51;;;;;;;1.60;1.50;;;;;;;22.26;81.15;90978.84;5032800;28;20394;-66
2022/06/06 11:30:20;;;;;;;2.45;1.75;;;;;;;21.52;98.44;90969.78;5032800;28;20018;-67
2022/06/06 11:33:31;;;;;;;1.95;1.60;;;;;;;21.28;100.00;90953.31;5032814;28;20049;-67
2022/06/06 11:36:16;;;;;;;1.23;1.13;;;;;;;21.50;100.00;90949.66;5004372;28;20041;-67
2022/06/06 11:39:00;;;;;;;1.75;1.65;;;;;;;21.99;100.00;90948.47;5030827;28;20396;-67
2022/06/06 11:41:56;;;;;;;1.98;1.60;;;;;;;22.76;100.00;90951.97;5032664;28;20025;-67
2022/06/06 11:44:56;;;;;;;3.65;1.85;;;;;;;26.15;85.75;90952.66;5032880;28;20029;-67
2022/06/06 11:47:47;;;;;;;1.77;1.38;;;;;;;27.73;60.90;90940.28;5032749;28;20033;-68
2022/06/06 11:50:34;;;;;;;2.60;1.73;;;;;;;27.10;57.52;90934.50;5032641;28;20037;-68
2022/06/06 11:53:02;;;;;;;2.00;1.73;;;;;;;25.65;63.38;90914.91;5032555;28;20025;-68
2022/06/06 11:55:57;;;;;;;2.58;2.13;;;;;;;25.47;73.51;90925.16;5032686;28;20029;-68
2022/06/06 11:59:09;;;;;;;2.08;1.75;;;;;;;25.20;75.95;90955.69;5032643;28;20021;-67
2022/06/06 12:01:44;;;;;;;2.60;2.08;;;;;;;24.78;78.50;90968.31;5005247;28;20045;-68
2022/06/06 12:04:27;;;;;;;3.55;2.10;;;;;;;23.85;83.97;90956.06;5032439;28;20026;-68
2022/06/06 12:07:01;;;;;;;1.60;1.50;;;;;;;23.23;84.18;90935.44;5032472;28;20156;-67
2022/06/06 12:10:03;;;;;;;3.92;2.20;;;;;;;22.69;95.79;90947.25;5032419;28;20075;-68
2022/06/06 12:12:38;;;;;;;2.15;1.80;;;;;;;22.19;100.00;90946.28;5032381;28;20037;-68
2022/06/06 12:15:21;;;;;;;1.88;1.60;;;;;;;21.77;97.82;90959.13;5032313;28;20562;-68
2022/06/06 12:17:52;;;;;;;2.45;1.98;;;;;;;21.13;100.00;90957.78;5032190;28;20033;-68
2022/06/06 12:20:47;;;;;;;2.22;1.70;;;;;;;20.87;100.00;90961.41;5032137;28;20025;-68
2022/06/06 12:23:39;;;;;;;2.55;2.08;;;;;;;20.78;100.00;90969.03;5032090;28;20030;-67
2022/06/06 12:26:19;;;;;;;1.83;1.70;;;;;;;21.00;100.00;90968.13;5008620;28;20064;-66
2022/06/06 12:29:05;;;;;;;3.13;2.00;;;;;;;20.76;100.00;90977.50;5032222;28;20049;-65
2022/06/06 12:31:42;;;;;;;2.95;2.30;;;;;;;20.58;100.00;90976.53;5031714;28;20061;-65
2022/06/06 12:34:16;;;;;;;2.88;2.28;;;;;;;20.50;100.00;90988.38;5032193;28;20111;-65
2022/06/06 12:36:54;;;;;;;2.85;2.22;;;;;;;20.75;100.00;90986.00;5034824;28;20040;-65
2022/06/06 12:39:32;;;;;;;115.35;58.63;;;;;;;20.91;100.00;90978.44;5051771;28;20637;-65
2022/06/06 12:42:17;;;;;;;6.40;4.15;;;;;;;21.16;100.00;90974.06;5051172;28;20044;-63
2022/06/06 12:45:00;;;;;;;6.38;3.72;;;;;;;21.34;100.00;90973.50;5051716;28;20029;-65
2022/06/06 12:47:47;;;;;;;3.25;2.03;;;;;;;21.55;100.00;90973.66;5051705;28;20043;-65
2022/06/06 12:50:27;;;;;;;4.70;2.15;;;;;;;21.67;100.00;90976.09;5051471;28;20032;-64
2022/06/06 12:53:02;;;;;;;2.42;1.92;;;;;;;21.31;100.00;90960.72;5049884;28;20058;-65
2022/06/06 12:58:44;;;;;;;2.58;2.38;;;;;;;21.68;100.00;90957.91;5031490;28;20041;-62